Time;durP1;ratioP1;P1;durP2;ratioP2;P2;SDS_P1;SDS_P2;PMS_P1;PMS_P2;Temp;Humidity;BMP_temperature;BMP_pressure;BME280_temperature;BME280_humidity;BME280_pressure;Samples;Min_cycle;Max_cycle;Signal;HPM_P1;HPM_P2
2022/08/21 00:00:17;;;;;;;;;;;20.20;99.90;;;;;;5053814;28;19932;-47
2022/08/21 00:02:50;;;;;;;;;;;20.20;99.90;;;;;;5053885;28;19916;-48
2022/08/21 00:05:16;;;;;;;;;;;20.20;99.90;;;;;;5051913;28;20365;-48
2022/08/21 00:07:42;;;;;;;;;;;20.20;99.90;;;;;;5043667;28;19997;-50
2022/08/21 00:10:07;;;;;;;;;;;20.20;99.90;;;;;;5040062;28;20376;-53
2022/08/21 00:12:33;;;;;;;;;;;20.20;99.90;;;;;;5053585;28;19963;-49
2022/08/21 00:14:58;;;;;;;;;;;20.10;99.90;;;;;;5054096;28;19916;-52
2022/08/21 00:17:24;;;;;;;;;;;20.10;99.90;;;;;;5053677;28;20011;-46
2022/08/21 00:19:49;;;;;;;;;;;20.20;99.90;;;;;;5053654;28;20380;-47
2022/08/21 00:22:15;;;;;;;;;;;20.20;99.90;;;;;;5053282;28;19919;-50
2022/08/21 00:24:41;;;;;;;;;;;20.20;99.90;;;;;;5053720;28;19909;-48
2022/08/21 00:27:07;;;;;;;;;;;20.20;99.90;;;;;;5052942;28;20011;-50
2022/08/21 00:29:32;;;;;;;;;;;20.20;99.90;;;;;;5053762;28;19966;-48
2022/08/21 00:31:58;;;;;;;;;;;20.20;99.90;;;;;;5053316;28;19913;-48
2022/08/21 00:34:24;;;;;;;;;;;20.10;99.90;;;;;;5053547;28;20047;-49
2022/08/21 00:36:50;;;;;;;;;;;20.10;99.90;;;;;;5052370;28;19993;-46
2022/08/21 00:39:15;;;;;;;;;;;20.10;99.90;;;;;;5053688;28;20357;-48
2022/08/21 00:41:42;;;;;;;;;;;20.00;99.90;;;;;;5052632;28;19995;-48
2022/08/21 00:44:09;;;;;;;;;;;19.90;99.90;;;;;;5053175;28;19913;-45
2022/08/21 00:46:35;;;;;;;;;;;19.90;99.90;;;;;;5052587;28;19924;-49
2022/08/21 00:49:00;;;;;;;;;;;19.90;99.90;;;;;;5051957;28;19917;-49
2022/08/21 00:51:31;;;;;;;;;;;19.90;99.90;;;;;;5052798;28;20420;-50
2022/08/21 00:53:59;;;;;;;;;;;19.90;99.90;;;;;;5043155;28;19917;-51
2022/08/21 00:56:25;;;;;;;;;;;19.90;99.90;;;;;;5040575;28;20292;-51
2022/08/21 00:58:51;;;;;;;;;;;19.90;99.90;;;;;;5053008;28;19940;-50
2022/08/21 01:01:17;;;;;;;;;;;19.80;99.90;;;;;;5052529;28;20514;-49
2022/08/21 01:03:42;;;;;;;;;;;19.70;99.90;;;;;;5052598;28;19978;-48
2022/08/21 01:06:08;;;;;;;;;;;19.60;99.90;;;;;;5052337;28;19940;-46
2022/08/21 01:08:34;;;;;;;;;;;19.60;99.90;;;;;;5037669;28;19940;-49
2022/08/21 01:11:00;;;;;;;;;;;19.60;99.90;;;;;;5046879;28;20411;-48
2022/08/21 01:13:27;;;;;;;;;;;19.60;99.90;;;;;;5033950;28;19909;-49
2022/08/21 01:15:55;;;;;;;;;;;19.60;99.90;;;;;;5050810;28;19920;-46
2022/08/21 01:18:20;;;;;;;;;;;19.70;99.90;;;;;;5052409;28;20352;-48
2022/08/21 01:20:58;;;;;;;;;;;19.60;99.90;;;;;;5051131;28;19979;-51
2022/08/21 01:23:23;;;;;;;;;;;19.60;99.90;;;;;;5044055;28;20343;-49
2022/08/21 01:25:49;;;;;;;;;;;19.60;99.90;;;;;;5052052;28;19996;-49
2022/08/21 01:28:14;;;;;;;;;;;19.70;99.90;;;;;;5052005;28;19976;-48
2022/08/21 01:30:41;;;;;;;;;;;19.60;99.90;;;;;;5052025;28;20008;-49
2022/08/21 01:33:07;;;;;;;;;;;19.60;99.90;;;;;;5052385;28;19924;-46
2022/08/21 01:35:33;;;;;;;;;;;19.60;99.90;;;;;;5052051;28;19917;-47
2022/08/21 01:37:59;;;;;;;;;;;19.70;99.90;;;;;;5051601;28;19963;-48
2022/08/21 01:40:24;;;;;;;;;;;19.60;99.90;;;;;;5052149;28;19970;-50
2022/08/21 01:42:50;;;;;;;;;;;19.60;99.90;;;;;;5051675;28;19920;-47
2022/08/21 01:45:16;;;;;;;;;;;19.60;99.90;;;;;;5051493;28;19924;-52
2022/08/21 01:47:43;;;;;;;;;;;19.60;99.90;;;;;;5051741;28;19913;-50
2022/08/21 01:50:10;;;;;;;;;;;19.60;99.90;;;;;;5052058;28;19968;-47
2022/08/21 01:52:36;;;;;;;;;;;19.50;99.90;;;;;;5051670;28;19916;-50
2022/08/21 01:55:02;;;;;;;;;;;19.60;99.90;;;;;;5052467;28;19916;-53
2022/08/21 01:57:28;;;;;;;;;;;19.50;99.90;;;;;;5050963;28;19920;-47
2022/08/21 01:59:54;;;;;;;;;;;19.60;99.90;;;;;;5051869;28;19917;-47
2022/08/21 02:02:19;;;;;;;;;;;19.60;99.90;;;;;;5051432;28;19909;-49
2022/08/21 02:04:45;;;;;;;;;;;19.50;99.90;;;;;;5051577;28;19917;-47
2022/08/21 02:07:11;;;;;;;;;;;19.60;99.90;;;;;;5050222;28;19955;-48
2022/08/21 02:09:36;;;;;;;;;;;19.60;99.90;;;;;;5050439;28;19913;-49
2022/08/21 02:12:02;;;;;;;;;;;19.60;99.90;;;;;;5051245;28;20293;-48
2022/08/21 02:14:27;;;;;;;;;;;19.50;99.90;;;;;;5051781;28;19983;-49
2022/08/21 02:16:53;;;;;;;;;;;19.50;99.90;;;;;;5050558;28;19920;-53
2022/08/21 02:19:18;;;;;;;;;;;19.50;99.90;;;;;;5048691;28;19992;-46
2022/08/21 02:21:44;;;;;;;;;;;19.50;99.90;;;;;;5052358;28;19921;-49
2022/08/21 02:24:10;;;;;;;;;;;19.50;99.90;;;;;;5044139;28;19909;-48
2022/08/21 02:26:36;;;;;;;;;;;19.40;99.90;;;;;;5049998;28;19923;-50
2022/08/21 02:29:03;;;;;;;;;;;19.50;99.90;;;;;;5055388;28;20039;-51
2022/08/21 02:31:28;;;;;;;;;;;19.50;99.90;;;;;;5050680;28;19908;-52
2022/08/21 02:33:54;;;;;;;;;;;19.50;99.90;;;;;;5049192;28;19917;-49
2022/08/21 02:36:20;;;;;;;;;;;19.40;99.90;;;;;;5047417;28;19919;-48
2022/08/21 02:38:45;;;;;;;;;;;19.50;99.90;;;;;;5050506;28;19913;-47
2022/08/21 02:41:15;;;;;;;;;;;19.50;99.90;;;;;;5049123;28;19920;-48
2022/08/21 02:43:41;;;;;;;;;;;19.50;99.90;;;;;;5050934;28;20007;-46
2022/08/21 02:46:08;;;;;;;;;;;19.50;99.90;;;;;;5050326;28;20524;-51
2022/08/21 02:48:33;;;;;;;;;;;19.50;99.90;;;;;;5051023;28;19917;-48
2022/08/21 02:51:00;;;;;;;;;;;19.40;99.90;;;;;;5050841;28;20000;-49
2022/08/21 02:53:26;;;;;;;;;;;19.40;99.90;;;;;;5050398;28;20003;-52
2022/08/21 02:55:52;;;;;;;;;;;19.40;99.90;;;;;;5050789;28;20007;-49
2022/08/21 02:58:23;;;;;;;;;;;19.50;99.90;;;;;;5050616;28;19909;-47
2022/08/21 03:00:49;;;;;;;;;;;19.50;99.90;;;;;;5050867;28;19916;-48
2022/08/21 03:03:15;;;;;;;;;;;19.40;99.90;;;;;;5051042;28;19934;-47
2022/08/21 03:05:41;;;;;;;;;;;19.40;99.90;;;;;;5065932;28;20015;-50
2022/08/21 03:08:09;;;;;;;;;;;19.40;99.90;;;;;;5050532;28;19909;-47
2022/08/21 03:10:35;;;;;;;;;;;19.40;99.90;;;;;;5050834;28;19924;-49
2022/08/21 03:13:03;;;;;;;;;;;19.40;99.90;;;;;;5050437;28;19955;-51
2022/08/21 03:15:29;;;;;;;;;;;19.40;99.90;;;;;;5050297;28;19920;-49
2022/08/21 03:17:54;;;;;;;;;;;19.30;99.90;;;;;;5048856;28;19966;-48
2022/08/21 03:20:22;;;;;;;;;;;19.30;99.90;;;;;;5034681;28;19925;-49
2022/08/21 03:22:48;;;;;;;;;;;19.20;99.90;;;;;;5044933;28;19910;-51
2022/08/21 03:25:13;;;;;;;;;;;19.10;99.90;;;;;;5054001;28;19942;-48
2022/08/21 03:27:39;;;;;;;;;;;19.20;99.90;;;;;;5054060;28;19948;-49
2022/08/21 03:30:05;;;;;;;;;;;19.10;99.90;;;;;;5054520;28;20019;-48
2022/08/21 03:32:31;;;;;;;;;;;19.10;99.90;;;;;;5053997;28;19909;-52
2022/08/21 03:34:57;;;;;;;;;;;19.10;99.90;;;;;;5053396;28;20414;-51
2022/08/21 03:37:24;;;;;;;;;;;19.10;99.90;;;;;;5052916;28;19920;-50
2022/08/21 03:39:49;;;;;;;;;;;19.10;99.90;;;;;;5046455;28;19919;-52
2022/08/21 03:42:15;;;;;;;;;;;19.10;99.90;;;;;;5053768;28;19995;-50
2022/08/21 03:44:41;;;;;;;;;;;19.00;99.90;;;;;;5054263;28;20533;-48
2022/08/21 03:47:06;;;;;;;;;;;19.00;99.90;;;;;;5051978;28;19920;-47
2022/08/21 03:49:33;;;;;;;;;;;19.00;99.90;;;;;;5054377;28;19924;-48
2022/08/21 03:51:59;;;;;;;;;;;19.00;99.90;;;;;;5053843;28;19920;-47
2022/08/21 03:54:25;;;;;;;;;;;19.00;99.90;;;;;;5054049;28;19921;-47
2022/08/21 03:56:50;;;;;;;;;;;19.00;99.90;;;;;;5053427;28;20369;-49
2022/08/21 03:59:16;;;;;;;;;;;19.00;99.90;;;;;;5054385;28;19909;-52
2022/08/21 04:01:51;;;;;;;;;;;19.10;99.90;;;;;;5053367;28;19944;-48
2022/08/21 04:04:16;;;;;;;;;;;19.10;99.90;;;;;;5054304;28;19908;-47
2022/08/21 04:06:42;;;;;;;;;;;19.10;99.90;;;;;;5053530;28;19917;-51
2022/08/21 04:09:08;;;;;;;;;;;19.10;99.90;;;;;;5052031;28;19917;-47
2022/08/21 04:11:33;;;;;;;;;;;19.10;99.90;;;;;;5044995;28;20333;-49
2022/08/21 04:13:59;;;;;;;;;;;19.10;99.90;;;;;;5053578;28;19916;-49
2022/08/21 04:16:24;;;;;;;;;;;19.00;99.90;;;;;;5052831;28;19947;-52
2022/08/21 04:18:50;;;;;;;;;;;19.10;99.90;;;;;;5053302;28;19913;-48
2022/08/21 04:21:16;;;;;;;;;;;19.10;99.90;;;;;;5053960;28;20341;-48
2022/08/21 04:23:41;;;;;;;;;;;19.10;99.90;;;;;;5053725;28;19939;-49
2022/08/21 04:26:07;;;;;;;;;;;18.90;99.90;;;;;;5053309;28;19920;-48
2022/08/21 04:28:33;;;;;;;;;;;18.80;99.90;;;;;;5053338;28;19913;-49
2022/08/21 04:30:58;;;;;;;;;;;18.80;99.90;;;;;;5053741;28;20632;-49
2022/08/21 04:33:24;;;;;;;;;;;18.70;99.90;;;;;;5053260;28;19924;-48
2022/08/21 04:35:50;;;;;;;;;;;18.70;99.90;;;;;;5052487;28;20292;-48
2022/08/21 04:38:15;;;;;;;;;;;18.80;99.90;;;;;;5048380;28;19913;-48
2022/08/21 04:40:41;;;;;;;;;;;18.90;99.90;;;;;;5048180;28;20455;-50
2022/08/21 04:43:08;;;;;;;;;;;18.90;99.90;;;;;;5051207;28;19956;-48
2022/08/21 04:45:36;;;;;;;;;;;18.90;99.90;;;;;;5050893;28;20426;-50
2022/08/21 04:48:03;;;;;;;;;;;18.90;99.90;;;;;;5051202;28;19967;-52
2022/08/21 04:50:38;;;;;;;;;;;18.90;99.90;;;;;;5051906;28;19912;-49
2022/08/21 04:53:05;;;;;;;;;;;18.90;99.90;;;;;;5048194;28;19919;-52
2022/08/21 04:55:30;;;;;;;;;;;18.80;99.90;;;;;;5031059;28;20016;-49
2022/08/21 04:57:56;;;;;;;;;;;18.90;99.90;;;;;;5050405;28;19960;-51
2022/08/21 05:00:24;;;;;;;;;;;18.90;99.90;;;;;;5051706;28;20272;-52
2022/08/21 05:02:54;;;;;;;;;;;18.90;99.90;;;;;;5044145;28;19909;-52
2022/08/21 05:05:20;;;;;;;;;;;18.90;99.90;;;;;;5034484;28;19913;-47
2022/08/21 05:07:46;;;;;;;;;;;18.90;99.90;;;;;;5052531;28;19909;-48
2022/08/21 05:10:12;;;;;;;;;;;18.90;99.90;;;;;;5052362;28;20522;-47
2022/08/21 05:12:39;;;;;;;;;;;19.00;99.90;;;;;;5051789;28;19928;-50
2022/08/21 05:15:04;;;;;;;;;;;19.00;99.90;;;;;;5050091;28;19916;-52
2022/08/21 05:17:30;;;;;;;;;;;19.00;99.90;;;;;;5032008;28;19931;-50
2022/08/21 05:19:56;;;;;;;;;;;19.00;99.90;;;;;;5033836;28;19914;-51
2022/08/21 05:22:24;;;;;;;;;;;18.90;99.90;;;;;;5051899;28;19963;-51
2022/08/21 05:24:49;;;;;;;;;;;18.80;99.90;;;;;;5050782;28;19912;-46
2022/08/21 05:27:15;;;;;;;;;;;18.90;99.90;;;;;;5048979;28;19919;-49
2022/08/21 05:29:40;;;;;;;;;;;18.90;99.90;;;;;;5052751;28;20387;-50
2022/08/21 05:32:10;;;;;;;;;;;19.00;99.90;;;;;;5050176;28;19917;-47
2022/08/21 05:34:36;;;;;;;;;;;19.00;99.90;;;;;;5052356;28;20355;-47
2022/08/21 05:37:02;;;;;;;;;;;19.00;99.90;;;;;;5049821;28;19956;-50
2022/08/21 05:39:28;;;;;;;;;;;19.10;99.90;;;;;;5052022;28;19963;-50
2022/08/21 05:41:53;;;;;;;;;;;19.10;99.90;;;;;;5050227;28;19955;-52
2022/08/21 05:44:19;;;;;;;;;;;19.10;99.90;;;;;;5051524;28;20392;-49
2022/08/21 05:46:45;;;;;;;;;;;19.00;99.90;;;;;;5050272;28;19921;-50
2022/08/21 05:49:10;;;;;;;;;;;19.00;99.90;;;;;;5051613;28;19917;-49
2022/08/21 05:51:36;;;;;;;;;;;19.00;99.90;;;;;;5051440;28;19920;-48
2022/08/21 05:54:02;;;;;;;;;;;19.00;99.90;;;;;;5040908;28;20004;-48
2022/08/21 05:56:28;;;;;;;;;;;18.80;99.90;;;;;;5044480;28;20439;-56
2022/08/21 05:58:53;;;;;;;;;;;18.80;99.90;;;;;;5051768;28;20018;-48
2022/08/21 06:01:19;;;;;;;;;;;18.90;99.90;;;;;;5043301;28;20389;-50
2022/08/21 06:03:45;;;;;;;;;;;18.90;99.90;;;;;;5049233;28;20022;-50
2022/08/21 06:06:11;;;;;;;;;;;18.80;99.90;;;;;;5050191;28;19920;-50
2022/08/21 06:08:36;;;;;;;;;;;18.90;99.90;;;;;;5050448;28;19909;-50
2022/08/21 06:11:02;;;;;;;;;;;18.90;99.90;;;;;;5048947;28;19952;-48
2022/08/21 06:13:28;;;;;;;;;;;18.80;99.90;;;;;;5038912;28;19948;-52
2022/08/21 06:16:21;;;;;;;;;;;18.90;99.90;;;;;;5049312;28;19951;-47
2022/08/21 06:18:47;;;;;;;;;;;19.00;99.90;;;;;;5041693;28;19913;-52
2022/08/21 06:21:13;;;;;;;;;;;19.10;99.90;;;;;;5045783;28;20463;-51
2022/08/21 06:23:39;;;;;;;;;;;19.10;99.90;;;;;;5038954;28;19920;-47
2022/08/21 06:26:06;;;;;;;;;;;19.20;99.90;;;;;;5050214;28;19925;-51
2022/08/21 06:28:31;;;;;;;;;;;19.20;99.90;;;;;;5036244;28;19913;-51
2022/08/21 06:30:57;;;;;;;;;;;19.20;99.90;;;;;;5050184;28;20012;-48
2022/08/21 06:33:23;;;;;;;;;;;19.20;99.90;;;;;;5051172;28;19916;-51
2022/08/21 06:35:49;;;;;;;;;;;19.30;99.90;;;;;;5050808;28;19924;-47
2022/08/21 06:38:15;;;;;;;;;;;19.30;99.90;;;;;;5051416;28;19999;-52
2022/08/21 06:40:40;;;;;;;;;;;19.40;99.90;;;;;;5051170;28;19959;-51
2022/08/21 06:43:10;;;;;;;;;;;19.50;99.90;;;;;;5051276;28;20050;-52
2022/08/21 06:45:35;;;;;;;;;;;19.30;99.90;;;;;;5050774;28;19912;-46
2022/08/21 06:48:01;;;;;;;;;;;19.40;99.90;;;;;;5051263;28;19915;-48
2022/08/21 06:50:27;;;;;;;;;;;19.50;99.90;;;;;;5050978;28;19946;-48
2022/08/21 06:52:59;;;;;;;;;;;19.50;99.90;;;;;;5051555;28;19920;-52
2022/08/21 06:55:25;;;;;;;;;;;19.50;99.90;;;;;;5052689;28;19921;-46
2022/08/21 06:57:51;;;;;;;;;;;19.40;99.90;;;;;;5055003;28;19932;-56
2022/08/21 07:00:16;;;;;;;;;;;19.40;99.90;;;;;;5052997;28;19976;-53
2022/08/21 07:02:42;;;;;;;;;;;19.50;99.90;;;;;;5055199;28;19908;-52
2022/08/21 07:05:07;;;;;;;;;;;19.50;99.90;;;;;;5054396;28;19916;-47
2022/08/21 07:07:33;;;;;;;;;;;19.60;99.90;;;;;;5055066;28;19909;-49
2022/08/21 07:09:59;;;;;;;;;;;19.60;99.90;;;;;;5055151;28;19917;-48
2022/08/21 07:12:25;;;;;;;;;;;19.70;99.90;;;;;;5054965;28;20015;-49
2022/08/21 07:14:51;;;;;;;;;;;19.80;99.90;;;;;;5055064;28;19917;-51
2022/08/21 07:17:17;;;;;;;;;;;19.90;99.90;;;;;;5054534;28;19917;-51
2022/08/21 07:19:42;;;;;;;;;;;20.00;99.90;;;;;;5054718;28;19919;-49
2022/08/21 07:22:08;;;;;;;;;;;20.00;99.90;;;;;;5055116;28;19982;-48
2022/08/21 07:24:34;;;;;;;;;;;20.10;99.90;;;;;;5055401;28;19929;-47
2022/08/21 07:26:59;;;;;;;;;;;20.10;99.90;;;;;;5054232;28;19919;-52
2022/08/21 07:29:25;;;;;;;;;;;20.10;99.90;;;;;;5057329;28;20495;-47
2022/08/21 07:31:50;;;;;;;;;;;20.20;99.90;;;;;;5058636;28;19990;-46
2022/08/21 07:34:16;;;;;;;;;;;20.30;99.90;;;;;;5057957;28;19924;-49
2022/08/21 07:36:42;;;;;;;;;;;20.40;99.90;;;;;;5057939;28;19936;-49
2022/08/21 07:39:07;;;;;;;;;;;20.60;99.90;;;;;;5056903;28;19912;-48
2022/08/21 07:41:34;;;;;;;;;;;20.60;99.90;;;;;;5054088;28;19916;-48
2022/08/21 07:43:59;;;;;;;;;;;20.60;99.90;;;;;;5050791;28;19914;-48
2022/08/21 07:46:25;;;;;;;;;;;20.70;99.90;;;;;;5053195;28;19923;-47
2022/08/21 07:48:51;;;;;;;;;;;20.80;99.90;;;;;;5045793;28;20380;-51
2022/08/21 07:51:21;;;;;;;;;;;20.90;99.40;;;;;;5054425;28;19909;-49
2022/08/21 07:53:51;;;;;;;;;;;20.80;99.80;;;;;;5052419;28;19928;-49
2022/08/21 07:56:16;;;;;;;;;;;21.00;99.20;;;;;;5045877;28;19952;-51
2022/08/21 07:58:42;;;;;;;;;;;21.10;99.30;;;;;;5046669;28;19924;-48
2022/08/21 08:01:07;;;;;;;;;;;21.00;99.50;;;;;;5053784;28;19956;-48
2022/08/21 08:03:33;;;;;;;;;;;21.10;99.60;;;;;;5047233;28;20437;-52
2022/08/21 08:06:04;;;;;;;;;;;21.10;99.20;;;;;;5043637;28;19913;-53
2022/08/21 08:08:29;;;;;;;;;;;21.10;99.30;;;;;;5041713;28;20391;-52
2022/08/21 08:10:56;;;;;;;;;;;21.10;98.70;;;;;;5054426;28;19917;-55
2022/08/21 08:13:21;;;;;;;;;;;20.90;98.20;;;;;;5053393;28;19916;-51
2022/08/21 08:15:47;;;;;;;;;;;20.90;98.20;;;;;;5053523;28;19917;-51
2022/08/21 08:18:13;;;;;;;;;;;20.70;98.20;;;;;;5053770;28;19920;-50
2022/08/21 08:20:39;;;;;;;;;;;20.70;97.80;;;;;;5040587;28;19925;-53
2022/08/21 08:23:04;;;;;;;;;;;20.80;97.60;;;;;;5044615;28;20389;-49
2022/08/21 08:25:30;;;;;;;;;;;21.00;97.30;;;;;;5052344;28;20400;-49
2022/08/21 08:27:56;;;;;;;;;;;21.10;97.60;;;;;;5052580;28;20018;-52
2022/08/21 08:30:22;;;;;;;;;;;21.40;96.40;;;;;;5052920;28;19917;-53
2022/08/21 08:32:47;;;;;;;;;;;21.50;95.70;;;;;;5053551;28;20300;-52
2022/08/21 08:35:14;;;;;;;;;;;21.50;95.40;;;;;;5053086;28;19917;-47
2022/08/21 08:37:42;;;;;;;;;;;21.60;95.30;;;;;;5044006;28;19920;-52
2022/08/21 08:40:33;;;;;;;;;;;21.70;95.30;;;;;;5052737;28;20404;-49
2022/08/21 08:42:58;;;;;;;;;;;21.80;94.50;;;;;;5052923;28;19912;-51
2022/08/21 08:45:26;;;;;;;;;;;21.90;94.90;;;;;;5052756;28;19913;-51
2022/08/21 08:48:02;;;;;;;;;;;21.90;94.20;;;;;;5053158;28;19956;-48
2022/08/21 08:50:44;;;;;;;;;;;22.00;94.10;;;;;;5053087;28;19908;-47
2022/08/21 08:53:17;;;;;;;;;;;22.20;93.70;;;;;;5053125;28;19965;-49
2022/08/21 08:55:44;;;;;;;;;;;22.20;93.50;;;;;;5052861;28;20083;-48
2022/08/21 08:58:18;;;;;;;;;;;22.40;93.50;;;;;;5053214;28;19913;-49
2022/08/21 09:00:46;;;;;;;;;;;22.50;93.00;;;;;;5051822;28;19916;-51
2022/08/21 09:03:12;;;;;;;;;;;22.50;93.00;;;;;;5050800;28;19913;-52
2022/08/21 09:05:55;;;;;;;;;;;22.40;92.70;;;;;;5052467;28;19917;-51
2022/08/21 09:08:41;;;;;;;;;;;22.60;92.40;;;;;;5051979;28;20331;-47
2022/08/21 09:11:25;;;;;;;;;;;22.70;92.00;;;;;;5050559;28;19913;-51
2022/08/21 09:13:55;;;;;;;;;;;22.80;92.20;;;;;;5046031;28;19913;-49
2022/08/21 09:16:35;;;;;;;;;;;22.90;92.60;;;;;;5043548;28;19912;-51
2022/08/21 09:19:06;;;;;;;;;;;23.00;91.90;;;;;;5052909;28;20410;-47
2022/08/21 09:21:45;;;;;;;;;;;23.00;91.60;;;;;;5051715;28;19956;-47
2022/08/21 09:24:16;;;;;;;;;;;22.90;91.70;;;;;;5049932;28;20288;-50
2022/08/21 09:26:51;;;;;;;;;;;22.90;91.80;;;;;;5050039;28;19948;-49
2022/08/21 09:29:20;;;;;;;;;;;23.00;91.90;;;;;;5051820;28;19909;-50
2022/08/21 09:31:46;;;;;;;;;;;23.10;91.60;;;;;;5052046;28;20411;-47
2022/08/21 09:34:13;;;;;;;;;;;23.40;90.80;;;;;;5052508;28;19908;-49
2022/08/21 09:36:50;;;;;;;;;;;23.30;91.30;;;;;;5067914;28;19935;-52
2022/08/21 09:39:26;;;;;;;;;;;22.90;91.50;;;;;;5068925;28;19916;-50
2022/08/21 09:41:56;;;;;;;;;;;22.90;91.80;;;;;;5052381;28;19913;-49
2022/08/21 09:44:31;;;;;;;;;;;22.90;91.30;;;;;;5048610;28;19968;-51
2022/08/21 09:46:57;;;;;;;;;;;22.80;91.50;;;;;;5046751;28;19919;-52
2022/08/21 09:49:28;;;;;;;;;;;22.90;91.40;;;;;;5047698;28;19911;-51
2022/08/21 09:51:54;;;;;;;;;;;23.00;90.90;;;;;;5048013;28;20645;-51
2022/08/21 09:54:24;;;;;;;;;;;23.00;91.40;;;;;;5046836;28;19920;-52
2022/08/21 09:59:45;;;;;;;;;;;23.20;90.90;;;;;;5042593;28;19954;-51
2022/08/21 10:02:28;;;;;;;;;;;23.40;90.30;;;;;;5043138;28;19956;-48
2022/08/21 10:04:58;;;;;;;;;;;23.30;90.20;;;;;;5048459;28;19967;-48
2022/08/21 10:07:25;;;;;;;;;;;23.40;90.20;;;;;;5043840;28;19935;-52
2022/08/21 10:10:07;;;;;;;;;;;23.60;90.00;;;;;;5044722;28;19913;-52
2022/08/21 10:12:39;;;;;;;;;;;23.70;90.00;;;;;;5046362;28;19913;-50
2022/08/21 10:15:11;;;;;;;;;;;23.70;88.70;;;;;;5048187;28;19939;-51
2022/08/21 10:17:45;;;;;;;;;;;23.60;88.90;;;;;;5046054;28;19933;-49
2022/08/21 10:20:17;;;;;;;;;;;23.60;89.20;;;;;;5046874;28;19920;-49
2022/08/21 10:22:57;;;;;;;;;;;23.60;89.00;;;;;;5048170;28;19913;-52
2022/08/21 10:25:29;;;;;;;;;;;23.60;88.40;;;;;;5042011;28;19992;-53
2022/08/21 10:28:04;;;;;;;;;;;23.70;89.00;;;;;;5046661;28;19983;-53
2022/08/21 10:30:35;;;;;;;;;;;23.80;87.30;;;;;;5044969;28;19909;-49
2022/08/21 10:33:24;;;;;;;;;;;23.90;87.20;;;;;;5042936;28;19996;-48
2022/08/21 10:35:55;;;;;;;;;;;23.90;88.00;;;;;;5043263;28;20376;-50
2022/08/21 10:38:39;;;;;;;;;;;24.00;87.90;;;;;;5047347;28;19999;-49
2022/08/21 10:41:11;;;;;;;;;;;23.80;88.20;;;;;;5046614;28;20066;-58
2022/08/21 10:43:42;;;;;;;;;;;23.60;87.90;;;;;;5043170;28;19917;-49
2022/08/21 10:46:14;;;;;;;;;;;23.70;87.90;;;;;;5041547;28;20437;-49
2022/08/21 10:48:46;;;;;;;;;;;23.70;89.80;;;;;;5032124;28;19913;-48
2022/08/21 10:51:18;;;;;;;;;;;23.80;90.00;;;;;;5031141;28;19921;-50
2022/08/21 10:53:47;;;;;;;;;;;23.70;88.60;;;;;;5049600;28;19974;-53
2022/08/21 10:56:21;;;;;;;;;;;23.80;87.90;;;;;;5035183;28;19913;-48
2022/08/21 10:58:47;;;;;;;;;;;24.00;87.40;;;;;;5034592;28;19920;-52
2022/08/21 11:01:34;;;;;;;;;;;24.20;88.00;;;;;;5033471;28;19913;-48
2022/08/21 11:04:11;;;;;;;;;;;24.50;87.00;;;;;;5034369;28;19984;-51
2022/08/21 11:06:39;;;;;;;;;;;24.50;85.80;;;;;;5029859;28;19917;-52
2022/08/21 11:09:10;;;;;;;;;;;24.70;86.70;;;;;;5032179;28;20405;-50
2022/08/21 11:11:39;;;;;;;;;;;25.00;86.80;;;;;;5034000;28;19921;-48
2022/08/21 11:14:23;;;;;;;;;;;25.20;85.80;;;;;;5034154;28;19916;-50
2022/08/21 11:16:51;;;;;;;;;;;25.30;84.80;;;;;;5034035;28;19921;-51
2022/08/21 11:19:21;;;;;;;;;;;25.20;84.90;;;;;;5034369;28;20434;-52
2022/08/21 11:21:56;;;;;;;;;;;25.00;84.00;;;;;;5035231;28;19988;-47
2022/08/21 11:24:27;;;;;;;;;;;24.70;84.50;;;;;;5033174;28;20188;-53
2022/08/21 11:27:08;;;;;;;;;;;24.60;84.70;;;;;;5032318;28;19945;-50
2022/08/21 11:29:38;;;;;;;;;;;24.50;85.50;;;;;;5032498;28;19963;-47
2022/08/21 11:32:22;;;;;;;;;;;24.50;85.10;;;;;;5033436;28;20003;-47
2022/08/21 11:34:48;;;;;;;;;;;24.60;85.00;;;;;;5038218;28;20429;-48
2022/08/21 11:37:19;;;;;;;;;;;24.80;84.30;;;;;;5052610;28;20007;-49
2022/08/21 11:39:48;;;;;;;;;;;24.80;84.60;;;;;;5028506;28;20400;-48
2022/08/21 11:42:19;;;;;;;;;;;24.90;85.20;;;;;;5024100;28;19916;-49
2022/08/21 11:45:01;;;;;;;;;;;25.10;85.00;;;;;;5031390;28;19995;-54
2022/08/21 11:47:39;;;;;;;;;;;25.10;84.70;;;;;;5031476;28;20037;-53
2022/08/21 11:50:10;;;;;;;;;;;25.40;84.00;;;;;;5030626;28;19921;-49
2022/08/21 11:52:39;;;;;;;;;;;25.50;83.80;;;;;;5031797;28;19955;-53
2022/08/21 11:55:11;;;;;;;;;;;25.40;82.90;;;;;;5031537;28;19914;-49
2022/08/21 11:57:59;;;;;;;;;;;25.20;83.90;;;;;;5032810;28;20280;-47
2022/08/21 12:00:28;;;;;;;;;;;25.10;83.10;;;;;;5032509;28;20008;-49
2022/08/21 12:02:56;;;;;;;;;;;25.30;83.10;;;;;;5033163;28;19942;-53
2022/08/21 12:05:42;;;;;;;;;;;25.50;83.00;;;;;;5032900;28;20070;-48
2022/08/21 12:08:25;;;;;;;;;;;25.50;82.50;;;;;;5032882;28;19917;-54
2022/08/21 12:11:00;;;;;;;;;;;25.40;81.70;;;;;;5032683;28;19916;-48
2022/08/21 12:13:27;;;;;;;;;;;25.50;80.40;;;;;;5032918;28;19932;-49
2022/08/21 12:16:04;;;;;;;;;;;25.40;80.70;;;;;;5032732;28;19913;-51
2022/08/21 12:18:33;;;;;;;;;;;25.30;80.30;;;;;;5036569;28;19909;-52
2022/08/21 12:21:18;;;;;;;;;;;25.20;81.20;;;;;;5032821;28;19921;-50
2022/08/21 12:23:47;;;;;;;;;;;25.10;80.70;;;;;;5032587;28;19909;-50
2022/08/21 12:26:13;;;;;;;;;;;25.10;80.60;;;;;;5035800;28;19912;-53
2022/08/21 12:28:38;;;;;;;;;;;24.80;80.80;;;;;;5032807;28;19931;-50
2022/08/21 12:31:04;;;;;;;;;;;24.80;81.80;;;;;;5029546;28;19936;-50
2022/08/21 12:33:35;;;;;;;;;;;25.00;81.40;;;;;;5030052;28;19935;-49
2022/08/21 12:36:06;;;;;;;;;;;24.90;81.20;;;;;;5029489;28;19976;-49
2022/08/21 12:38:39;;;;;;;;;;;25.00;79.60;;;;;;5023541;28;19940;-49
2022/08/21 12:41:12;;;;;;;;;;;25.00;80.00;;;;;;5031428;28;19909;-48
2022/08/21 12:43:40;;;;;;;;;;;25.00;79.70;;;;;;5032325;28;19910;-48
2022/08/21 12:46:07;;;;;;;;;;;25.00;80.20;;;;;;5032022;28;19909;-48
2022/08/21 12:48:40;;;;;;;;;;;25.10;80.10;;;;;;5031264;28;19909;-54
2022/08/21 12:51:11;;;;;;;;;;;25.20;81.10;;;;;;5031608;28;19971;-51
2022/08/21 12:53:47;;;;;;;;;;;25.20;80.60;;;;;;5030786;28;19909;-51
2022/08/21 12:56:15;;;;;;;;;;;25.30;79.90;;;;;;5032038;28;20019;-53
2022/08/21 12:58:44;;;;;;;;;;;25.30;79.80;;;;;;5032380;28;20365;-53
2022/08/21 13:01:19;;;;;;;;;;;25.60;80.70;;;;;;5032239;28;20074;-49
2022/08/21 13:03:45;;;;;;;;;;;25.90;78.80;;;;;;5027271;28;19913;-50
2022/08/21 13:06:16;;;;;;;;;;;26.20;77.80;;;;;;5031928;28;19913;-48
2022/08/21 13:08:42;;;;;;;;;;;26.30;78.10;;;;;;5031682;28;19913;-48
2022/08/21 13:11:09;;;;;;;;;;;26.50;77.20;;;;;;5031709;28;19913;-48
2022/08/21 13:13:35;;;;;;;;;;;26.80;75.90;;;;;;5031497;28;19917;-53
2022/08/21 13:16:05;;;;;;;;;;;26.90;75.80;;;;;;5031127;28;19932;-52
2022/08/21 13:18:33;;;;;;;;;;;26.90;75.90;;;;;;5028002;28;20069;-53
2022/08/21 13:21:03;;;;;;;;;;;26.60;75.50;;;;;;5046679;28;19963;-50
2022/08/21 13:23:29;;;;;;;;;;;26.40;76.60;;;;;;5031700;28;19995;-46
2022/08/21 13:25:55;;;;;;;;;;;26.40;77.30;;;;;;5031631;28;19910;-47
2022/08/21 13:28:21;;;;;;;;;;;26.50;77.10;;;;;;5031402;28;19920;-52
2022/08/21 13:30:52;;;;;;;;;;;26.60;75.50;;;;;;5032157;28;19913;-51
2022/08/21 13:33:19;;;;;;;;;;;26.50;75.50;;;;;;5032249;28;20468;-52
2022/08/21 13:35:50;;;;;;;;;;;26.60;74.80;;;;;;5011371;28;19975;-46
2022/08/21 13:38:17;;;;;;;;;;;26.70;75.30;;;;;;5028390;28;19913;-47
2022/08/21 13:40:55;;;;;;;;;;;27.00;74.60;;;;;;5046624;28;19936;-47
2022/08/21 13:43:26;;;;;;;;;;;27.10;75.40;;;;;;5027984;28;20019;-51
2022/08/21 13:45:53;;;;;;;;;;;27.20;73.90;;;;;;5030041;28;19920;-50
2022/08/21 13:48:20;;;;;;;;;;;27.10;73.40;;;;;;5032377;28;20008;-51
2022/08/21 13:50:45;;;;;;;;;;;27.00;73.90;;;;;;5030539;28;20001;-50
2022/08/21 13:53:21;;;;;;;;;;;27.10;73.80;;;;;;5029891;28;19945;-50
2022/08/21 13:55:47;;;;;;;;;;;26.90;74.60;;;;;;5029019;28;19979;-53
2022/08/21 13:58:23;;;;;;;;;;;26.80;73.50;;;;;;5030930;28;19917;-48
2022/08/21 14:00:50;;;;;;;;;;;26.90;73.90;;;;;;5030484;28;19936;-53
2022/08/21 14:03:25;;;;;;;;;;;27.20;73.70;;;;;;5030102;28;19937;-50
2022/08/21 14:05:51;;;;;;;;;;;27.60;74.00;;;;;;5028563;28;19909;-49
2022/08/21 14:08:37;;;;;;;;;;;27.70;72.40;;;;;;5030783;28;19917;-52
2022/08/21 14:11:04;;;;;;;;;;;27.70;72.10;;;;;;5030655;28;19918;-48
2022/08/21 14:13:37;;;;;;;;;;;27.60;72.10;;;;;;5031291;28;19913;-50
2022/08/21 14:16:03;;;;;;;;;;;27.40;72.30;;;;;;5030938;28;19956;-49
2022/08/21 14:18:29;;;;;;;;;;;27.10;73.10;;;;;;5025222;28;19917;-52
2022/08/21 14:21:08;;;;;;;;;;;27.20;73.30;;;;;;5031362;28;20234;-47
2022/08/21 14:23:33;;;;;;;;;;;27.60;72.50;;;;;;5035737;28;20031;-51
2022/08/21 14:26:00;;;;;;;;;;;28.10;71.90;;;;;;5032779;28;19968;-51